Last 30 Days

Kelseyville

Daily Data | America/Los_Angeles
as of 5/19/24 7:00 AM PDT
Date Daily Max Temp (°F) Time of Max Temp Daily Min Temp (°F) Time of Min Temp Daily Rain (In) Month Precip (In) Season Precip (In) Daily ETo (in) 7 Day ETo (in) Daily Solar Rad (Cal/cm2) Wind Spd (mph) Daily Max Wind (mph) Time of Max Wind Max Wind Dir (°) Dew Pt (°F) Max RH (%) Min RH (%) Hrs <= 32F (hrs) Hrs <= 28F (hrs) Daily Leaf Wet (Hrs) Degree Hrs (hrs) Hrs 70-85F (hrs) Hrs > 95F (hrs) Powdery Mildew Stress (pts) Storm Total (In) Daily Max Rain Intensity (In/Hr) Time of Max Rain Intensity Max 1 Min Rain (In) Max 1 Min Rain Time Max 15 Min Rain (In) Max 15 Min Precip Time Max 60 Min Rain (In) Max 60 Min Rain Time MinBV Day (V)
5/18/24 84.2 1314 49.9 0458 0.00 0.75 28.50 0.239 1.70 709 3.6 18.2 1704 WSW | 248 51.2 97 35 0.0 0.0 0.0 143.3 10.16 0.00 40 - - - - - - - - - 12.6
5/17/24 87.2 1630 47.6 0554 0.00 0.75 28.50 0.229 1.70 703 2.7 11.2 1407 NNW | 343 54.4 99 30 0.0 0.0 4.9 167.4 5.06 0.00 20 - - - - - - - - - 12.6
5/16/24 85.8 1352 48.6 0504 0.00 0.75 28.50 0.240 1.70 715 3.0 12.9 1341 SSW | 206 52.4 92 33 0.0 0.0 0.0 167.1 10.45 0.00 30 - - - - - - - - - 12.6
5/15/24 92.7 1510 47.7 0554 0.00 0.75 28.50 0.255 1.74 711 3.0 17.3 1641 SW | 216 49.9 93 21 0.0 0.0 0.0 229.6 3.48 0.00 10 - - - - - - - - - 12.6
5/14/24 89.2 1450 45.3 0602 0.00 0.75 28.50 0.237 1.73 709 2.6 13.8 1538 W | 278 51.8 93 16 0.0 0.0 0.0 190.7 3.81 0.00 20 - - - - - - - - - 12.6
5/13/24 87.0 1517 40.4 0556 0.00 0.75 28.50 0.247 1.68 728 3.1 18.0 1350 NE | 41 45.2 91 15 0.0 0.0 0.0 162.0 3.97 0.00 30 - - - - - - - - - 12.7
5/12/24 87.3 1452 43.8 0603 0.00 0.75 28.50 0.250 1.59 717 2.9 16.9 1442 WSW | 244 44.3 91 22 0.0 0.0 0.0 171.4 4.85 0.00 40 - - - - - - - - - 12.6
5/11/24 89.5 1637 43.4 0537 0.00 0.75 28.50 0.245 1.50 721 2.3 17.3 1730 W | 268 43.4 92 11 0.0 0.0 0.0 191.5 3.60 0.00 50 - - - - - - - - - 12.6
5/10/24 85.7 1657 41.3 0614 0.00 0.75 28.50 0.232 1.32 717 2.2 13.8 1227 ENE | 73 42.2 93 16 0.0 0.0 0.0 173.7 10.71 0.00 60 - - - - - - - - - 12.6
5/9/24 80.0 1650 48.3 0055 0.00 0.75 28.50 0.275 1.29 725 7.0 29.2 1045 NE | 56 36.8 80 20 0.0 0.0 0.0 111.7 9.68 0.00 40 - - - - - - - - - 12.6
5/8/24 77.1 1433 35.2 0552 0.00 0.75 28.50 0.247 1.22 689 5.0 27.4 2323 NNE | 14 33.5 97 14 0.0 0.0 7.3 78.7 7.73 0.00 20 - - - - - - - - - 12.6
5/7/24 70.5 1625 34.4 0606 0.00 0.75 28.50 0.185 1.17 707 2.5 10.3 1329 N | 1 39.3 98 24 0.0 0.0 4.5 17.3 0.11 0.00 0 - - - - - - - - - 12.6
5/6/24 64.6 1553 32.3 0519 0.00 0.75 28.50 0.165 1.18 647 4.5 19.7 1837 WNW | 286 40.0 99 47 0.0 0.0 7.8 0.0 0.00 0.00 0 - - - - - - - - - 12.6
5/5/24 59.1 1544 34.6 0618 0.01 0.75 28.50 0.157 1.21 680 4.8 25.0 1019 WNW | 293 36.5 94 36 0.0 0.0 0.7 0.0 0.00 0.00 0 0.75 0.01 1019 0.01 1020 0.01 1020 0.01 1020 12.6
5/4/24 53.6 0141 39.6 0056 0.74 0.74 28.49 0.061 1.26 299 6.3 26.1 0723 W | 274 42.4 94 71 0.0 0.0 15.2 0.0 0.00 0.00 0 0.74 0.62 0659 0.01 0321 0.07 0713 0.16 0722 12.6
5/3/24 76.0 1501 37.4 0624 0.00 0.00 27.75 0.208 1.37 659 4.6 21.0 1900 W | 275 42.7 97 24 0.0 0.0 3.3 47.0 4.87 0.00 0 - - - - - - - - - 12.6
5/2/24 72.9 1456 40.4 0436 0.00 0.00 27.75 0.200 1.32 665 5.8 22.8 1553 W | 276 45.3 88 45 0.0 0.0 0.0 33.6 2.59 0.00 0 - - - - - - - - - 12.6
5/1/24 74.0 1507 31.3 0526 0.00 0.00 27.75 0.197 1.26 687 3.3 16.7 1608 NW | 308 36.5 98 22 0.4 0.0 2.7 34.3 3.90 0.00 10 - - - - - - - - - 12.6
4/30/24 70.7 1513 32.9 0504 0.00 0.57 27.75 0.191 1.20 690 3.7 19.3 1711 W | 275 36.7 97 25 0.0 0.0 4.8 14.5 0.36 0.00 20 - - - - - - - - - 12.6
4/29/24 69.4 1508 37.2 0643 0.00 0.57 27.75 0.197 1.16 685 4.8 23.0 1355 NNW | 336 38.0 91 25 0.0 0.0 0.0 9.1 0.00 0.00 30 - - - - - - - - - 12.6
4/28/24 72.4 1450 39.9 0629 0.00 0.57 27.75 0.205 1.18 679 5.3 21.5 1630 W | 277 41.7 95 27 0.0 0.0 0.0 27.7 2.69 0.00 40 - - - - - - - - - 12.6
4/27/24 69.2 1554 34.2 0635 0.00 0.57 27.75 0.175 1.16 626 3.9 18.0 1610 WNW | 282 41.3 98 37 0.0 0.0 6.9 11.5 0.00 0.00 50 - - - - - - - - - 12.6
4/26/24 62.9 1353 41.7 0059 0.00 0.57 27.75 0.160 1.21 613 6.7 26.1 1641 W | 265 43.5 93 47 0.0 0.0 0.3 0.0 0.00 0.00 60 - - - - - - - - - 12.6
4/25/24 65.0 1500 46.1 0401 0.00 0.57 27.75 0.134 1.26 456 5.3 23.2 1731 NW | 312 43.8 92 45 0.0 0.0 0.0 0.0 0.00 0.00 70 - - - - - - - - - 12.6
4/24/24 67.2 1643 49.4 0504 0.00 0.57 27.75 0.139 1.30 483 3.9 14.2 1759 SW | 228 46.5 86 50 0.0 0.0 0.0 0.7 0.00 0.00 80 - - - - - - - - - 12.6
4/23/24 65.6 1412 44.8 0635 0.00 0.57 27.75 0.152 1.32 594 4.7 17.5 1623 SW | 218 46.0 92 54 0.0 0.0 0.0 0.0 0.00 0.00 90 - - - - - - - - - 12.6
4/22/24 83.1 1610 42.1 0625 0.00 0.57 27.75 0.213 1.34 650 3.6 17.3 1829 SSW | 209 47.1 97 22 0.0 0.0 2.0 108.0 7.90 0.00 100 - - - - - - - - - 12.6
4/21/24 82.4 1651 39.6 0637 0.00 0.57 27.75 0.187 1.27 618 2.2 10.1 1308 N | 10 42.7 94 13 0.0 0.0 0.0 110.0 7.53 0.00 100 - - - - - - - - - 12.6
4/20/24 79.4 1531 43.4 0652 0.00 0.57 27.75 0.227 1.15 655 3.8 17.1 1621 NW | 317 37.4 91 17 0.0 0.0 0.0 94.5 8.16 0.00 90 - - - - - - - - - 12.6
4/19/24 81.4 1445 42.8 0545 0.00 0.57 27.75 0.208 0.96 643 3.3 18.6 1608 W | 262 46.5 98 29 0.0 0.0 6.7 93.8 7.50 0.00 70 - - - - - - - - - 12.6
Max 92.7 - 49.9 - 0.74 0.75 28.50 0.275 1.74 728 7.0 29.2 - - 54.4 99 71 0.4 0.0 15.2 229.6 10.71 0.00 - 0.75 0.62 - 0.01 - 0.07 - 0.16 - 12.7
Avg - - - - - - - - - - 4.0 - - - 43.3 - - 0.0 0.0 - - 3.97 0.00 - 0.74 - - - - - - - - -
Min 53.6 - 31.3 - 0.00 0.00 27.75 0.061 0.96 299 2.2 10.1 - - 33.5 80 11 0.0 0.0 0.0 0.0 0.00 0.00 - 0.74 0.01 - 0.01 - 0.01 - 0.01 - 12.6
Total - - - - - - - - - - - - - - - - - 0.4 0.0 - - 119.12 0.00 - - - - - - - - - - -